sensor_id;sensor_type;location;lat;lon;timestamp;P1;durP1;ratioP1;P2;durP2;ratioP2
24279;SDS011;12395;42.808;23.408;2023-08-08T00:01:24;1.45;;;0.90;;
24279;SDS011;12395;42.808;23.408;2023-08-08T00:03:49;2.58;;;0.90;;
24279;SDS011;12395;42.808;23.408;2023-08-08T00:06:14;1.60;;;1.10;;
24279;SDS011;12395;42.808;23.408;2023-08-08T00:08:40;3.17;;;1.00;;
24279;SDS011;12395;42.808;23.408;2023-08-08T00:11:06;1.35;;;1.00;;
24279;SDS011;12395;42.808;23.408;2023-08-08T00:13:31;2.42;;;1.40;;
24279;SDS011;12395;42.808;23.408;2023-08-08T00:15:57;3.72;;;1.27;;
24279;SDS011;12395;42.808;23.408;2023-08-08T00:18:22;1.95;;;1.23;;
24279;SDS011;12395;42.808;23.408;2023-08-08T00:20:47;2.05;;;1.38;;
24279;SDS011;12395;42.808;23.408;2023-08-08T00:23:13;3.38;;;1.30;;
24279;SDS011;12395;42.808;23.408;2023-08-08T00:25:38;8.02;;;1.52;;
24279;SDS011;12395;42.808;23.408;2023-08-08T00:28:04;2.78;;;1.40;;
24279;SDS011;12395;42.808;23.408;2023-08-08T00:30:30;3.00;;;1.38;;
24279;SDS011;12395;42.808;23.408;2023-08-08T00:32:55;3.20;;;1.50;;
24279;SDS011;12395;42.808;23.408;2023-08-08T00:35:20;3.55;;;1.60;;
24279;SDS011;12395;42.808;23.408;2023-08-08T00:37:46;3.83;;;1.58;;
24279;SDS011;12395;42.808;23.408;2023-08-08T00:40:12;3.85;;;1.80;;
24279;SDS011;12395;42.808;23.408;2023-08-08T00:42:37;3.28;;;1.70;;
24279;SDS011;12395;42.808;23.408;2023-08-08T00:45:03;2.85;;;1.67;;
24279;SDS011;12395;42.808;23.408;2023-08-08T00:47:32;2.75;;;1.88;;
24279;SDS011;12395;42.808;23.408;2023-08-08T00:49:59;3.50;;;1.70;;
24279;SDS011;12395;42.808;23.408;2023-08-08T00:52:25;3.57;;;1.77;;
24279;SDS011;12395;42.808;23.408;2023-08-08T00:54:51;3.00;;;1.80;;
24279;SDS011;12395;42.808;23.408;2023-08-08T00:57:18;3.67;;;1.83;;
24279;SDS011;12395;42.808;23.408;2023-08-08T00:59:43;2.03;;;1.45;;
24279;SDS011;12395;42.808;23.408;2023-08-08T01:02:09;2.13;;;1.50;;
24279;SDS011;12395;42.808;23.408;2023-08-08T01:04:34;1.67;;;1.20;;
24279;SDS011;12395;42.808;23.408;2023-08-08T01:09:28;1.35;;;1.02;;
24279;SDS011;12395;42.808;23.408;2023-08-08T01:11:58;1.98;;;1.00;;
24279;SDS011;12395;42.808;23.408;2023-08-08T01:14:25;1.55;;;1.05;;
24279;SDS011;12395;42.808;23.408;2023-08-08T01:16:53;1.98;;;0.95;;
24279;SDS011;12395;42.808;23.408;2023-08-08T01:19:23;2.35;;;1.00;;
24279;SDS011;12395;42.808;23.408;2023-08-08T01:21:52;2.30;;;1.00;;
24279;SDS011;12395;42.808;23.408;2023-08-08T01:24:22;1.10;;;0.90;;
24279;SDS011;12395;42.808;23.408;2023-08-08T01:26:48;1.30;;;0.85;;
24279;SDS011;12395;42.808;23.408;2023-08-08T01:29:14;1.60;;;0.98;;
24279;SDS011;12395;42.808;23.408;2023-08-08T01:31:40;2.53;;;1.00;;
24279;SDS011;12395;42.808;23.408;2023-08-08T01:34:06;2.67;;;1.38;;
24279;SDS011;12395;42.808;23.408;2023-08-08T01:36:42;1.95;;;0.98;;
24279;SDS011;12395;42.808;23.408;2023-08-08T01:39:13;1.02;;;0.75;;
24279;SDS011;12395;42.808;23.408;2023-08-08T01:41:42;1.65;;;1.08;;
24279;SDS011;12395;42.808;23.408;2023-08-08T01:44:09;0.98;;;0.90;;
24279;SDS011;12395;42.808;23.408;2023-08-08T01:46:36;2.33;;;0.90;;
24279;SDS011;12395;42.808;23.408;2023-08-08T01:49:03;1.40;;;1.00;;
24279;SDS011;12395;42.808;23.408;2023-08-08T01:51:29;1.75;;;1.17;;
24279;SDS011;12395;42.808;23.408;2023-08-08T01:53:54;1.48;;;1.10;;
24279;SDS011;12395;42.808;23.408;2023-08-08T01:56:20;1.98;;;1.17;;
24279;SDS011;12395;42.808;23.408;2023-08-08T01:58:46;1.90;;;1.00;;
24279;SDS011;12395;42.808;23.408;2023-08-08T02:01:11;1.27;;;1.15;;
24279;SDS011;12395;42.808;23.408;2023-08-08T02:03:36;3.25;;;1.00;;
24279;SDS011;12395;42.808;23.408;2023-08-08T02:06:02;1.80;;;1.10;;
24279;SDS011;12395;42.808;23.408;2023-08-08T02:08:27;2.50;;;1.40;;
24279;SDS011;12395;42.808;23.408;2023-08-08T02:10:52;1.63;;;1.10;;
24279;SDS011;12395;42.808;23.408;2023-08-08T02:13:18;1.88;;;1.13;;
24279;SDS011;12395;42.808;23.408;2023-08-08T02:15:43;2.03;;;1.20;;
24279;SDS011;12395;42.808;23.408;2023-08-08T02:18:09;2.50;;;1.42;;
24279;SDS011;12395;42.808;23.408;2023-08-08T02:20:36;1.88;;;1.42;;
24279;SDS011;12395;42.808;23.408;2023-08-08T02:23:01;3.92;;;1.38;;
24279;SDS011;12395;42.808;23.408;2023-08-08T02:25:27;1.50;;;1.10;;
24279;SDS011;12395;42.808;23.408;2023-08-08T02:27:52;1.95;;;1.40;;
24279;SDS011;12395;42.808;23.408;2023-08-08T02:30:21;1.50;;;1.10;;
24279;SDS011;12395;42.808;23.408;2023-08-08T02:32:46;1.30;;;1.20;;
24279;SDS011;12395;42.808;23.408;2023-08-08T02:35:12;1.48;;;1.17;;
24279;SDS011;12395;42.808;23.408;2023-08-08T02:37:37;3.28;;;1.38;;
24279;SDS011;12395;42.808;23.408;2023-08-08T02:40:03;2.20;;;0.95;;
24279;SDS011;12395;42.808;23.408;2023-08-08T02:42:30;2.88;;;1.60;;
24279;SDS011;12395;42.808;23.408;2023-08-08T02:44:55;2.67;;;1.63;;
24279;SDS011;12395;42.808;23.408;2023-08-08T02:47:20;2.75;;;1.80;;
24279;SDS011;12395;42.808;23.408;2023-08-08T02:49:46;2.10;;;1.27;;
24279;SDS011;12395;42.808;23.408;2023-08-08T02:52:11;2.95;;;1.40;;
24279;SDS011;12395;42.808;23.408;2023-08-08T02:54:37;1.90;;;1.20;;
24279;SDS011;12395;42.808;23.408;2023-08-08T02:57:02;2.70;;;1.30;;
24279;SDS011;12395;42.808;23.408;2023-08-08T02:59:28;2.30;;;1.40;;
24279;SDS011;12395;42.808;23.408;2023-08-08T03:01:54;1.75;;;1.40;;
24279;SDS011;12395;42.808;23.408;2023-08-08T03:04:19;2.22;;;1.50;;
24279;SDS011;12395;42.808;23.408;2023-08-08T03:06:44;2.72;;;1.48;;
24279;SDS011;12395;42.808;23.408;2023-08-08T03:09:10;2.97;;;1.30;;
24279;SDS011;12395;42.808;23.408;2023-08-08T03:11:35;1.63;;;1.13;;
24279;SDS011;12395;42.808;23.408;2023-08-08T03:14:02;1.77;;;1.30;;
24279;SDS011;12395;42.808;23.408;2023-08-08T03:16:27;5.07;;;1.50;;
24279;SDS011;12395;42.808;23.408;2023-08-08T03:18:54;2.75;;;1.48;;
24279;SDS011;12395;42.808;23.408;2023-08-08T03:21:20;4.18;;;1.77;;
24279;SDS011;12395;42.808;23.408;2023-08-08T03:23:45;7.53;;;1.80;;
24279;SDS011;12395;42.808;23.408;2023-08-08T03:26:10;3.92;;;1.95;;
24279;SDS011;12395;42.808;23.408;2023-08-08T03:28:36;2.75;;;1.80;;
24279;SDS011;12395;42.808;23.408;2023-08-08T03:31:01;3.58;;;2.10;;
24279;SDS011;12395;42.808;23.408;2023-08-08T03:33:28;2.97;;;2.07;;
24279;SDS011;12395;42.808;23.408;2023-08-08T03:35:54;2.95;;;2.10;;
24279;SDS011;12395;42.808;23.408;2023-08-08T03:38:19;3.65;;;2.00;;
24279;SDS011;12395;42.808;23.408;2023-08-08T03:40:44;3.10;;;2.03;;
24279;SDS011;12395;42.808;23.408;2023-08-08T03:43:10;3.67;;;2.00;;
24279;SDS011;12395;42.808;23.408;2023-08-08T03:45:35;4.00;;;1.92;;
24279;SDS011;12395;42.808;23.408;2023-08-08T03:48:00;2.65;;;1.98;;
24279;SDS011;12395;42.808;23.408;2023-08-08T03:50:26;4.50;;;2.25;;
24279;SDS011;12395;42.808;23.408;2023-08-08T03:52:51;3.10;;;2.08;;
24279;SDS011;12395;42.808;23.408;2023-08-08T03:55:17;3.63;;;2.50;;
24279;SDS011;12395;42.808;23.408;2023-08-08T03:57:43;4.13;;;2.50;;
24279;SDS011;12395;42.808;23.408;2023-08-08T04:00:09;4.15;;;2.35;;
24279;SDS011;12395;42.808;23.408;2023-08-08T04:02:36;4.32;;;2.38;;
24279;SDS011;12395;42.808;23.408;2023-08-08T04:05:01;3.72;;;2.38;;
24279;SDS011;12395;42.808;23.408;2023-08-08T04:07:27;3.75;;;2.20;;
24279;SDS011;12395;42.808;23.408;2023-08-08T04:09:52;5.50;;;2.60;;
24279;SDS011;12395;42.808;23.408;2023-08-08T04:12:18;9.68;;;5.60;;
24279;SDS011;12395;42.808;23.408;2023-08-08T04:14:43;9.57;;;5.65;;
24279;SDS011;12395;42.808;23.408;2023-08-08T04:17:09;8.38;;;5.50;;
24279;SDS011;12395;42.808;23.408;2023-08-08T04:19:34;7.32;;;4.28;;
24279;SDS011;12395;42.808;23.408;2023-08-08T04:21:59;5.05;;;3.42;;
24279;SDS011;12395;42.808;23.408;2023-08-08T04:24:25;6.00;;;3.72;;
24279;SDS011;12395;42.808;23.408;2023-08-08T04:26:50;5.53;;;3.40;;
24279;SDS011;12395;42.808;23.408;2023-08-08T04:29:16;5.25;;;3.42;;
24279;SDS011;12395;42.808;23.408;2023-08-08T04:31:41;5.13;;;3.50;;
24279;SDS011;12395;42.808;23.408;2023-08-08T04:34:07;5.45;;;3.72;;
24279;SDS011;12395;42.808;23.408;2023-08-08T04:36:32;4.55;;;3.45;;
24279;SDS011;12395;42.808;23.408;2023-08-08T04:38:58;5.75;;;3.80;;
24279;SDS011;12395;42.808;23.408;2023-08-08T04:41:23;4.80;;;3.50;;
24279;SDS011;12395;42.808;23.408;2023-08-08T04:43:49;5.38;;;3.80;;
24279;SDS011;12395;42.808;23.408;2023-08-08T04:46:14;7.38;;;3.92;;
24279;SDS011;12395;42.808;23.408;2023-08-08T04:48:39;7.38;;;3.80;;
24279;SDS011;12395;42.808;23.408;2023-08-08T04:51:05;5.97;;;3.88;;
24279;SDS011;12395;42.808;23.408;2023-08-08T04:53:31;4.95;;;3.58;;
24279;SDS011;12395;42.808;23.408;2023-08-08T04:55:56;4.93;;;3.20;;
24279;SDS011;12395;42.808;23.408;2023-08-08T04:58:21;5.85;;;3.47;;
24279;SDS011;12395;42.808;23.408;2023-08-08T05:00:47;4.75;;;3.42;;
24279;SDS011;12395;42.808;23.408;2023-08-08T05:03:12;6.22;;;3.58;;
24279;SDS011;12395;42.808;23.408;2023-08-08T05:05:38;8.30;;;4.00;;
24279;SDS011;12395;42.808;23.408;2023-08-08T05:08:03;5.88;;;3.92;;
24279;SDS011;12395;42.808;23.408;2023-08-08T05:10:29;6.53;;;4.00;;
24279;SDS011;12395;42.808;23.408;2023-08-08T05:12:57;7.68;;;4.20;;
24279;SDS011;12395;42.808;23.408;2023-08-08T05:15:22;8.25;;;5.35;;
24279;SDS011;12395;42.808;23.408;2023-08-08T05:17:48;7.55;;;4.97;;
24279;SDS011;12395;42.808;23.408;2023-08-08T05:20:13;10.13;;;5.32;;
24279;SDS011;12395;42.808;23.408;2023-08-08T05:22:39;7.65;;;5.18;;
24279;SDS011;12395;42.808;23.408;2023-08-08T05:25:04;7.95;;;4.78;;
24279;SDS011;12395;42.808;23.408;2023-08-08T05:27:30;6.00;;;4.18;;
24279;SDS011;12395;42.808;23.408;2023-08-08T05:29:56;5.68;;;3.30;;
24279;SDS011;12395;42.808;23.408;2023-08-08T05:32:21;5.82;;;3.00;;
24279;SDS011;12395;42.808;23.408;2023-08-08T05:34:47;4.47;;;2.60;;
24279;SDS011;12395;42.808;23.408;2023-08-08T05:37:14;3.83;;;2.45;;
24279;SDS011;12395;42.808;23.408;2023-08-08T05:39:39;3.28;;;2.40;;
24279;SDS011;12395;42.808;23.408;2023-08-08T05:42:04;2.95;;;2.20;;
24279;SDS011;12395;42.808;23.408;2023-08-08T05:44:30;4.40;;;2.00;;
24279;SDS011;12395;42.808;23.408;2023-08-08T05:46:55;3.65;;;2.20;;
24279;SDS011;12395;42.808;23.408;2023-08-08T05:49:21;2.50;;;1.98;;
24279;SDS011;12395;42.808;23.408;2023-08-08T05:51:46;2.97;;;2.15;;
24279;SDS011;12395;42.808;23.408;2023-08-08T05:54:12;4.35;;;2.20;;
24279;SDS011;12395;42.808;23.408;2023-08-08T05:56:38;4.82;;;2.47;;
24279;SDS011;12395;42.808;23.408;2023-08-08T05:59:04;2.97;;;2.50;;
24279;SDS011;12395;42.808;23.408;2023-08-08T06:01:29;3.47;;;2.80;;
24279;SDS011;12395;42.808;23.408;2023-08-08T06:03:56;3.85;;;2.90;;
24279;SDS011;12395;42.808;23.408;2023-08-08T06:06:24;4.28;;;2.72;;
24279;SDS011;12395;42.808;23.408;2023-08-08T06:08:50;3.72;;;2.58;;
24279;SDS011;12395;42.808;23.408;2023-08-08T06:11:15;3.80;;;3.00;;
24279;SDS011;12395;42.808;23.408;2023-08-08T06:13:40;3.60;;;2.72;;
24279;SDS011;12395;42.808;23.408;2023-08-08T06:16:06;3.05;;;2.67;;
24279;SDS011;12395;42.808;23.408;2023-08-08T06:18:35;4.68;;;2.92;;
24279;SDS011;12395;42.808;23.408;2023-08-08T06:21:01;3.75;;;2.70;;
24279;SDS011;12395;42.808;23.408;2023-08-08T06:23:27;3.05;;;2.00;;
24279;SDS011;12395;42.808;23.408;2023-08-08T06:25:53;4.93;;;2.63;;
24279;SDS011;12395;42.808;23.408;2023-08-08T06:28:18;2.55;;;2.03;;
24279;SDS011;12395;42.808;23.408;2023-08-08T06:30:44;3.05;;;1.92;;
24279;SDS011;12395;42.808;23.408;2023-08-08T06:33:09;2.10;;;1.90;;
24279;SDS011;12395;42.808;23.408;2023-08-08T06:35:34;2.28;;;2.08;;
24279;SDS011;12395;42.808;23.408;2023-08-08T06:38:00;3.45;;;2.15;;
24279;SDS011;12395;42.808;23.408;2023-08-08T06:40:25;2.00;;;1.80;;
24279;SDS011;12395;42.808;23.408;2023-08-08T06:42:52;2.55;;;2.30;;
24279;SDS011;12395;42.808;23.408;2023-08-08T06:45:18;3.03;;;2.40;;
24279;SDS011;12395;42.808;23.408;2023-08-08T06:47:44;3.83;;;2.25;;
24279;SDS011;12395;42.808;23.408;2023-08-08T06:50:10;7.15;;;4.57;;
24279;SDS011;12395;42.808;23.408;2023-08-08T06:52:35;4.68;;;2.85;;
24279;SDS011;12395;42.808;23.408;2023-08-08T06:55:01;3.00;;;2.70;;
24279;SDS011;12395;42.808;23.408;2023-08-08T06:57:26;2.60;;;2.40;;
24279;SDS011;12395;42.808;23.408;2023-08-08T06:59:53;3.20;;;2.70;;
24279;SDS011;12395;42.808;23.408;2023-08-08T07:02:19;2.70;;;2.50;;
24279;SDS011;12395;42.808;23.408;2023-08-08T07:04:45;3.40;;;2.80;;
24279;SDS011;12395;42.808;23.408;2023-08-08T07:07:10;3.00;;;2.65;;
24279;SDS011;12395;42.808;23.408;2023-08-08T07:09:36;3.38;;;2.58;;
24279;SDS011;12395;42.808;23.408;2023-08-08T07:12:02;3.10;;;2.67;;
24279;SDS011;12395;42.808;23.408;2023-08-08T07:14:28;4.63;;;2.80;;
24279;SDS011;12395;42.808;23.408;2023-08-08T07:16:54;3.55;;;2.50;;
24279;SDS011;12395;42.808;23.408;2023-08-08T07:19:19;2.95;;;2.63;;
24279;SDS011;12395;42.808;23.408;2023-08-08T07:21:46;3.08;;;2.60;;
24279;SDS011;12395;42.808;23.408;2023-08-08T07:24:13;4.18;;;2.63;;
24279;SDS011;12395;42.808;23.408;2023-08-08T07:26:38;4.40;;;3.38;;
24279;SDS011;12395;42.808;23.408;2023-08-08T07:29:04;2.50;;;2.30;;
24279;SDS011;12395;42.808;23.408;2023-08-08T07:31:33;3.20;;;2.50;;
24279;SDS011;12395;42.808;23.408;2023-08-08T07:33:58;3.00;;;2.50;;
24279;SDS011;12395;42.808;23.408;2023-08-08T07:36:24;4.25;;;2.60;;
24279;SDS011;12395;42.808;23.408;2023-08-08T07:38:49;3.38;;;2.47;;
24279;SDS011;12395;42.808;23.408;2023-08-08T07:41:15;2.53;;;2.25;;
24279;SDS011;12395;42.808;23.408;2023-08-08T07:43:40;2.40;;;2.20;;
24279;SDS011;12395;42.808;23.408;2023-08-08T07:46:06;2.65;;;2.10;;
24279;SDS011;12395;42.808;23.408;2023-08-08T07:48:31;3.08;;;2.35;;
24279;SDS011;12395;42.808;23.408;2023-08-08T07:50:56;2.88;;;2.28;;
24279;SDS011;12395;42.808;23.408;2023-08-08T07:56:40;2.40;;;2.20;;
24279;SDS011;12395;42.808;23.408;2023-08-08T07:59:07;2.20;;;2.00;;
24279;SDS011;12395;42.808;23.408;2023-08-08T08:01:34;3.28;;;2.30;;
24279;SDS011;12395;42.808;23.408;2023-08-08T08:03:59;3.22;;;2.10;;
24279;SDS011;12395;42.808;23.408;2023-08-08T08:06:25;2.15;;;1.90;;
24279;SDS011;12395;42.808;23.408;2023-08-08T08:08:50;2.22;;;1.85;;
24279;SDS011;12395;42.808;23.408;2023-08-08T08:11:17;3.00;;;1.85;;
24279;SDS011;12395;42.808;23.408;2023-08-08T08:13:42;1.98;;;1.80;;
24279;SDS011;12395;42.808;23.408;2023-08-08T08:16:08;2.30;;;1.90;;
24279;SDS011;12395;42.808;23.408;2023-08-08T08:18:33;2.10;;;1.90;;
24279;SDS011;12395;42.808;23.408;2023-08-08T08:21:00;4.18;;;2.20;;
24279;SDS011;12395;42.808;23.408;2023-08-08T08:23:25;2.05;;;1.85;;
24279;SDS011;12395;42.808;23.408;2023-08-08T08:25:51;2.28;;;1.90;;
24279;SDS011;12395;42.808;23.408;2023-08-08T08:28:16;2.22;;;1.90;;
24279;SDS011;12395;42.808;23.408;2023-08-08T08:30:42;2.08;;;1.88;;
24279;SDS011;12395;42.808;23.408;2023-08-08T08:33:08;1.80;;;1.70;;
24279;SDS011;12395;42.808;23.408;2023-08-08T08:35:34;3.03;;;2.00;;
24279;SDS011;12395;42.808;23.408;2023-08-08T08:38:00;1.98;;;1.70;;
24279;SDS011;12395;42.808;23.408;2023-08-08T08:40:26;1.92;;;1.70;;
24279;SDS011;12395;42.808;23.408;2023-08-08T08:42:53;2.05;;;1.75;;
24279;SDS011;12395;42.808;23.408;2023-08-08T08:45:19;2.28;;;1.80;;
24279;SDS011;12395;42.808;23.408;2023-08-08T08:47:46;1.95;;;1.63;;
24279;SDS011;12395;42.808;23.408;2023-08-08T08:50:13;1.77;;;1.67;;
24279;SDS011;12395;42.808;23.408;2023-08-08T08:52:40;2.25;;;1.63;;
24279;SDS011;12395;42.808;23.408;2023-08-08T08:55:07;1.98;;;1.60;;
24279;SDS011;12395;42.808;23.408;2023-08-08T08:57:33;2.08;;;1.58;;
24279;SDS011;12395;42.808;23.408;2023-08-08T08:59:59;1.70;;;1.58;;
24279;SDS011;12395;42.808;23.408;2023-08-08T09:02:24;3.53;;;1.60;;
24279;SDS011;12395;42.808;23.408;2023-08-08T09:04:50;3.47;;;1.63;;
24279;SDS011;12395;42.808;23.408;2023-08-08T09:07:17;1.60;;;1.50;;
24279;SDS011;12395;42.808;23.408;2023-08-08T09:09:45;1.75;;;1.45;;
24279;SDS011;12395;42.808;23.408;2023-08-08T09:12:11;1.77;;;1.67;;
24279;SDS011;12395;42.808;23.408;2023-08-08T09:14:39;2.10;;;1.80;;
24279;SDS011;12395;42.808;23.408;2023-08-08T09:17:09;2.05;;;1.83;;
24279;SDS011;12395;42.808;23.408;2023-08-08T09:19:38;2.17;;;1.80;;
24279;SDS011;12395;42.808;23.408;2023-08-08T09:22:07;2.03;;;1.83;;
24279;SDS011;12395;42.808;23.408;2023-08-08T09:24:32;2.15;;;1.88;;
24279;SDS011;12395;42.808;23.408;2023-08-08T09:26:58;2.00;;;1.80;;
24279;SDS011;12395;42.808;23.408;2023-08-08T09:29:23;2.67;;;1.67;;
24279;SDS011;12395;42.808;23.408;2023-08-08T09:31:48;2.00;;;1.80;;
24279;SDS011;12395;42.808;23.408;2023-08-08T09:34:15;2.20;;;1.70;;
24279;SDS011;12395;42.808;23.408;2023-08-08T09:36:40;2.00;;;1.73;;
24279;SDS011;12395;42.808;23.408;2023-08-08T09:39:06;3.08;;;1.80;;
24279;SDS011;12395;42.808;23.408;2023-08-08T09:41:32;2.05;;;1.85;;
24279;SDS011;12395;42.808;23.408;2023-08-08T09:43:58;2.67;;;1.70;;
24279;SDS011;12395;42.808;23.408;2023-08-08T09:46:24;2.40;;;2.20;;
24279;SDS011;12395;42.808;23.408;2023-08-08T09:48:50;2.58;;;2.13;;
24279;SDS011;12395;42.808;23.408;2023-08-08T09:51:16;2.10;;;1.90;;
24279;SDS011;12395;42.808;23.408;2023-08-08T09:53:42;2.53;;;2.00;;
24279;SDS011;12395;42.808;23.408;2023-08-08T09:56:09;2.22;;;2.03;;
24279;SDS011;12395;42.808;23.408;2023-08-08T09:58:34;1.95;;;1.77;;
24279;SDS011;12395;42.808;23.408;2023-08-08T10:01:00;2.50;;;2.30;;
24279;SDS011;12395;42.808;23.408;2023-08-08T10:03:25;2.40;;;2.20;;
24279;SDS011;12395;42.808;23.408;2023-08-08T10:05:53;2.30;;;2.10;;
24279;SDS011;12395;42.808;23.408;2023-08-08T10:08:19;3.75;;;2.20;;
24279;SDS011;12395;42.808;23.408;2023-08-08T10:10:46;2.45;;;2.25;;
24279;SDS011;12395;42.808;23.408;2023-08-08T10:13:23;2.42;;;2.22;;
24279;SDS011;12395;42.808;23.408;2023-08-08T10:15:50;2.53;;;2.20;;
24279;SDS011;12395;42.808;23.408;2023-08-08T10:18:17;3.25;;;2.35;;
24279;SDS011;12395;42.808;23.408;2023-08-08T10:20:47;2.50;;;2.30;;
24279;SDS011;12395;42.808;23.408;2023-08-08T10:23:14;2.13;;;1.92;;
24279;SDS011;12395;42.808;23.408;2023-08-08T10:25:50;2.97;;;2.08;;
24279;SDS011;12395;42.808;23.408;2023-08-08T10:28:20;2.90;;;2.50;;
24279;SDS011;12395;42.808;23.408;2023-08-08T10:30:47;3.30;;;2.50;;
24279;SDS011;12395;42.808;23.408;2023-08-08T10:33:23;3.60;;;2.50;;
24279;SDS011;12395;42.808;23.408;2023-08-08T10:35:56;2.65;;;2.35;;
24279;SDS011;12395;42.808;23.408;2023-08-08T10:38:26;2.60;;;2.33;;
24279;SDS011;12395;42.808;23.408;2023-08-08T10:41:11;2.92;;;2.42;;
24279;SDS011;12395;42.808;23.408;2023-08-08T10:43:38;2.38;;;2.17;;
24279;SDS011;12395;42.808;23.408;2023-08-08T10:46:11;3.05;;;2.38;;
24279;SDS011;12395;42.808;23.408;2023-08-08T10:48:36;2.63;;;2.30;;
24279;SDS011;12395;42.808;23.408;2023-08-08T10:51:02;3.10;;;2.10;;
24279;SDS011;12395;42.808;23.408;2023-08-08T10:53:30;3.28;;;2.30;;
24279;SDS011;12395;42.808;23.408;2023-08-08T10:55:56;2.95;;;2.20;;
24279;SDS011;12395;42.808;23.408;2023-08-08T10:58:34;2.55;;;2.20;;
24279;SDS011;12395;42.808;23.408;2023-08-08T11:01:00;3.22;;;2.50;;
24279;SDS011;12395;42.808;23.408;2023-08-08T11:03:26;2.50;;;2.30;;
24279;SDS011;12395;42.808;23.408;2023-08-08T11:05:52;3.60;;;2.70;;
24279;SDS011;12395;42.808;23.408;2023-08-08T11:08:17;2.30;;;2.00;;
24279;SDS011;12395;42.808;23.408;2023-08-08T11:10:43;2.50;;;2.30;;
24279;SDS011;12395;42.808;23.408;2023-08-08T11:13:09;2.90;;;2.20;;
24279;SDS011;12395;42.808;23.408;2023-08-08T11:15:35;2.70;;;2.17;;
24279;SDS011;12395;42.808;23.408;2023-08-08T12:34:56;1.97;;;1.70;;
24279;SDS011;12395;42.808;23.408;2023-08-08T12:37:24;2.13;;;1.75;;
24279;SDS011;12395;42.808;23.408;2023-08-08T12:39:51;3.05;;;1.95;;
24279;SDS011;12395;42.808;23.408;2023-08-08T12:42:16;1.95;;;1.75;;
24279;SDS011;12395;42.808;23.408;2023-08-08T12:44:42;2.63;;;1.90;;
24279;SDS011;12395;42.808;23.408;2023-08-08T12:47:08;3.40;;;1.75;;
24279;SDS011;12395;42.808;23.408;2023-08-08T12:49:33;6.43;;;2.15;;
24279;SDS011;12395;42.808;23.408;2023-08-08T12:51:59;2.85;;;1.90;;
24279;SDS011;12395;42.808;23.408;2023-08-08T12:54:24;2.25;;;1.60;;
24279;SDS011;12395;42.808;23.408;2023-08-08T12:56:51;1.90;;;1.70;;
24279;SDS011;12395;42.808;23.408;2023-08-08T12:59:16;1.52;;;1.42;;
24279;SDS011;12395;42.808;23.408;2023-08-08T13:01:41;1.60;;;1.50;;
24279;SDS011;12395;42.808;23.408;2023-08-08T13:04:07;1.63;;;1.52;;
24279;SDS011;12395;42.808;23.408;2023-08-08T13:06:32;1.67;;;1.58;;
24279;SDS011;12395;42.808;23.408;2023-08-08T13:08:58;1.70;;;1.60;;
24279;SDS011;12395;42.808;23.408;2023-08-08T13:11:25;1.83;;;1.60;;
24279;SDS011;12395;42.808;23.408;2023-08-08T13:13:51;2.03;;;1.52;;
24279;SDS011;12395;42.808;23.408;2023-08-08T13:16:16;2.10;;;1.48;;
24279;SDS011;12395;42.808;23.408;2023-08-08T13:18:42;1.83;;;1.63;;
24279;SDS011;12395;42.808;23.408;2023-08-08T13:21:07;1.88;;;1.77;;
24279;SDS011;12395;42.808;23.408;2023-08-08T13:23:33;1.60;;;1.48;;
24279;SDS011;12395;42.808;23.408;2023-08-08T13:25:58;1.70;;;1.50;;
24279;SDS011;12395;42.808;23.408;2023-08-08T13:28:23;1.58;;;1.48;;
24279;SDS011;12395;42.808;23.408;2023-08-08T13:30:49;1.92;;;1.80;;
24279;SDS011;12395;42.808;23.408;2023-08-08T13:33:14;1.70;;;1.60;;
24279;SDS011;12395;42.808;23.408;2023-08-08T13:35:40;1.70;;;1.60;;
24279;SDS011;12395;42.808;23.408;2023-08-08T13:38:05;2.42;;;1.33;;
24279;SDS011;12395;42.808;23.408;2023-08-08T13:40:32;1.90;;;1.70;;
24279;SDS011;12395;42.808;23.408;2023-08-08T13:42:57;1.40;;;1.30;;
24279;SDS011;12395;42.808;23.408;2023-08-08T13:45:22;1.60;;;1.30;;
24279;SDS011;12395;42.808;23.408;2023-08-08T13:47:48;1.45;;;1.35;;
24279;SDS011;12395;42.808;23.408;2023-08-08T13:50:14;2.35;;;1.55;;
24279;SDS011;12395;42.808;23.408;2023-08-08T13:52:40;1.52;;;1.42;;
24279;SDS011;12395;42.808;23.408;2023-08-08T13:55:06;1.67;;;1.52;;
24279;SDS011;12395;42.808;23.408;2023-08-08T13:57:32;1.50;;;1.40;;
24279;SDS011;12395;42.808;23.408;2023-08-08T13:59:58;1.50;;;1.40;;
24279;SDS011;12395;42.808;23.408;2023-08-08T14:02:23;1.75;;;1.40;;
24279;SDS011;12395;42.808;23.408;2023-08-08T14:04:48;1.35;;;1.25;;
24279;SDS011;12395;42.808;23.408;2023-08-08T14:07:14;1.70;;;1.60;;
24279;SDS011;12395;42.808;23.408;2023-08-08T14:09:40;1.50;;;1.40;;
24279;SDS011;12395;42.808;23.408;2023-08-08T14:12:05;1.52;;;1.42;;
24279;SDS011;12395;42.808;23.408;2023-08-08T14:14:31;1.52;;;1.42;;
24279;SDS011;12395;42.808;23.408;2023-08-08T14:16:56;1.50;;;1.40;;
24279;SDS011;12395;42.808;23.408;2023-08-08T14:19:22;1.70;;;1.60;;
24279;SDS011;12395;42.808;23.408;2023-08-08T14:21:48;2.05;;;1.60;;
24279;SDS011;12395;42.808;23.408;2023-08-08T14:24:13;2.28;;;1.45;;
24279;SDS011;12395;42.808;23.408;2023-08-08T14:26:38;1.40;;;1.30;;
24279;SDS011;12395;42.808;23.408;2023-08-08T14:29:04;1.38;;;1.27;;
24279;SDS011;12395;42.808;23.408;2023-08-08T14:31:30;1.45;;;1.35;;
24279;SDS011;12395;42.808;23.408;2023-08-08T14:33:55;1.65;;;1.38;;
24279;SDS011;12395;42.808;23.408;2023-08-08T14:36:21;1.50;;;1.40;;
24279;SDS011;12395;42.808;23.408;2023-08-08T14:38:46;1.40;;;1.30;;
24279;SDS011;12395;42.808;23.408;2023-08-08T14:41:12;1.25;;;1.15;;
24279;SDS011;12395;42.808;23.408;2023-08-08T14:43:37;1.40;;;1.30;;
24279;SDS011;12395;42.808;23.408;2023-08-08T14:46:03;1.70;;;1.50;;
24279;SDS011;12395;42.808;23.408;2023-08-08T14:48:30;1.50;;;1.40;;
24279;SDS011;12395;42.808;23.408;2023-08-08T14:50:55;2.50;;;1.40;;
24279;SDS011;12395;42.808;23.408;2023-08-08T14:53:20;2.90;;;1.50;;
24279;SDS011;12395;42.808;23.408;2023-08-08T14:55:46;2.22;;;1.33;;
24279;SDS011;12395;42.808;23.408;2023-08-08T14:58:13;1.40;;;1.30;;
24279;SDS011;12395;42.808;23.408;2023-08-08T15:00:39;1.60;;;1.50;;
24279;SDS011;12395;42.808;23.408;2023-08-08T15:03:05;2.20;;;1.33;;
24279;SDS011;12395;42.808;23.408;2023-08-08T15:05:30;1.60;;;1.50;;
24279;SDS011;12395;42.808;23.408;2023-08-08T15:07:56;1.50;;;1.40;;
24279;SDS011;12395;42.808;23.408;2023-08-08T15:10:21;1.27;;;1.17;;
24279;SDS011;12395;42.808;23.408;2023-08-08T15:12:47;2.65;;;1.48;;
24279;SDS011;12395;42.808;23.408;2023-08-08T15:15:12;1.50;;;1.40;;
24279;SDS011;12395;42.808;23.408;2023-08-08T15:17:37;1.30;;;1.20;;
24279;SDS011;12395;42.808;23.408;2023-08-08T15:20:03;1.30;;;1.20;;
24279;SDS011;12395;42.808;23.408;2023-08-08T15:22:29;1.50;;;1.40;;
24279;SDS011;12395;42.808;23.408;2023-08-08T15:24:54;1.38;;;1.27;;
24279;SDS011;12395;42.808;23.408;2023-08-08T15:27:20;1.50;;;1.40;;
24279;SDS011;12395;42.808;23.408;2023-08-08T15:29:45;1.50;;;1.40;;
24279;SDS011;12395;42.808;23.408;2023-08-08T15:32:11;1.40;;;1.20;;
24279;SDS011;12395;42.808;23.408;2023-08-08T15:34:36;1.35;;;1.25;;
24279;SDS011;12395;42.808;23.408;2023-08-08T15:37:02;1.85;;;1.38;;
24279;SDS011;12395;42.808;23.408;2023-08-08T15:39:27;1.83;;;1.45;;
24279;SDS011;12395;42.808;23.408;2023-08-08T15:41:52;2.00;;;1.30;;
24279;SDS011;12395;42.808;23.408;2023-08-08T15:44:18;1.55;;;1.40;;
24279;SDS011;12395;42.808;23.408;2023-08-08T15:46:43;2.10;;;1.20;;
24279;SDS011;12395;42.808;23.408;2023-08-08T15:49:09;1.45;;;1.20;;